createdAt,value
2022-11-07T00:01:45.621Z,6.708374
2022-11-07T00:05:10.820Z,6.728516
2022-11-07T00:08:36.058Z,6.708374
2022-11-07T00:12:01.390Z,6.799011
2022-11-07T00:15:26.571Z,6.78894
2022-11-07T00:18:51.779Z,6.738586
2022-11-07T00:22:16.974Z,6.768799
2022-11-07T00:25:42.251Z,6.839294
2022-11-07T00:29:07.495Z,6.849365
2022-11-07T00:32:32.704Z,6.869507
2022-11-07T00:35:57.949Z,6.869507
2022-11-07T00:39:23.187Z,6.879578
2022-11-07T00:42:48.413Z,6.889648
2022-11-07T00:46:13.667Z,6.919861
2022-11-07T00:49:38.879Z,6.879578
2022-11-07T00:53:04.108Z,6.849365
2022-11-07T00:56:29.348Z,6.809082
2022-11-07T00:59:54.574Z,6.869507
2022-11-07T01:03:19.824Z,6.809082
2022-11-07T01:06:45.047Z,6.849365
2022-11-07T01:10:10.267Z,6.839294
2022-11-07T01:13:35.509Z,6.869507
2022-11-07T01:17:00.756Z,6.768799
2022-11-07T01:20:26.104Z,6.688232
2022-11-07T01:23:51.259Z,6.698303
2022-11-07T01:27:16.452Z,6.728516
2022-11-07T01:30:41.697Z,6.738586
2022-11-07T01:34:07.699Z,6.688232
2022-11-07T01:37:32.941Z,6.607666
2022-11-07T01:40:58.127Z,6.607666
2022-11-07T01:44:23.352Z,6.607666
2022-11-07T01:47:48.560Z,6.587524
2022-11-07T01:51:13.772Z,6.577454
2022-11-07T01:54:39.014Z,6.577454
2022-11-07T01:58:04.195Z,6.577454
2022-11-07T02:01:29.549Z,6.65802
2022-11-07T02:04:54.637Z,6.708374
2022-11-07T02:08:19.858Z,6.708374
2022-11-07T02:11:45.092Z,6.728516
2022-11-07T02:15:10.280Z,6.768799
2022-11-07T02:18:35.514Z,6.758728
2022-11-07T02:22:00.708Z,6.758728
2022-11-07T02:25:25.932Z,6.738586
2022-11-07T02:28:51.191Z,6.688232
2022-11-07T02:32:16.379Z,6.698303
2022-11-07T02:35:41.585Z,6.708374
2022-11-07T02:39:06.801Z,6.738586
2022-11-07T02:42:32.036Z,6.738586
2022-11-07T02:45:57.260Z,6.758728
2022-11-07T02:49:22.444Z,6.768799
2022-11-07T02:52:47.673Z,6.78894
2022-11-07T02:56:12.874Z,6.849365
2022-11-07T02:59:38.092Z,6.90979
2022-11-07T03:03:03.331Z,6.869507
2022-11-07T03:06:28.531Z,6.869507
2022-11-07T03:09:53.747Z,6.90979
2022-11-07T03:13:18.972Z,6.90979
2022-11-07T03:16:44.172Z,6.940002
2022-11-07T03:20:09.402Z,6.849365
2022-11-07T03:23:34.601Z,6.839294
2022-11-07T03:26:59.809Z,6.758728
2022-11-07T03:30:25.037Z,6.809082
2022-11-07T03:33:50.254Z,6.869507
2022-11-07T03:37:15.503Z,6.980286
2022-11-07T03:40:40.706Z,7.070923
2022-11-07T03:44:05.919Z,7.070923
2022-11-07T03:47:31.124Z,7.131348
2022-11-07T03:50:56.332Z,7.242126
2022-11-07T03:54:21.588Z,7.312622
2022-11-07T03:57:46.778Z,7.312622
2022-11-07T04:01:11.980Z,7.312622
2022-11-07T04:04:37.214Z,7.28241
2022-11-07T04:08:02.425Z,7.242126
2022-11-07T04:11:27.750Z,7.28241
2022-11-07T04:14:52.887Z,7.28241
2022-11-07T04:18:18.148Z,7.28241
2022-11-07T04:21:43.370Z,7.342834
2022-11-07T04:25:08.587Z,7.342834
2022-11-07T04:28:33.820Z,7.272339
2022-11-07T04:31:59.025Z,7.242126
2022-11-07T04:35:24.232Z,7.211914
2022-11-07T04:38:49.435Z,7.242126
2022-11-07T04:42:14.649Z,7.272339
2022-11-07T04:45:40.011Z,7.342834
2022-11-07T04:49:05.055Z,7.322693
2022-11-07T04:52:30.890Z,7.302551
2022-11-07T04:55:56.114Z,7.28241
2022-11-07T04:59:21.318Z,7.272339
2022-11-07T05:02:46.606Z,7.302551
2022-11-07T05:06:11.742Z,7.242126
2022-11-07T05:09:36.988Z,7.171631
2022-11-07T05:13:02.212Z,7.211914
2022-11-07T05:16:27.468Z,7.252197
2022-11-07T05:19:52.731Z,7.211914
2022-11-07T05:23:18.411Z,7.171631
2022-11-07T05:26:43.232Z,7.28241
2022-11-07T05:30:08.451Z,7.322693
2022-11-07T05:33:33.775Z,7.403259
2022-11-07T05:36:59.068Z,7.483826
2022-11-07T05:40:24.291Z,7.554321
2022-11-07T05:43:49.567Z,7.503967
2022-11-07T05:47:14.795Z,7.503967
2022-11-07T05:50:40.009Z,7.503967
2022-11-07T05:54:05.293Z,7.634888
2022-11-07T05:57:30.496Z,7.705383
2022-11-07T06:00:55.739Z,7.715454
2022-11-07T06:04:21.009Z,7.715454
2022-11-07T06:07:46.291Z,7.78595
2022-11-07T06:11:11.569Z,7.866516
2022-11-07T06:14:36.818Z,7.997437
2022-11-07T06:18:02.119Z,8.078003
2022-11-07T06:21:27.373Z,8.108215
2022-11-07T06:24:52.656Z,8.198853
2022-11-07T06:28:17.974Z,8.279419
2022-11-07T06:31:43.221Z,8.299561
2022-11-07T06:35:08.436Z,8.370056
2022-11-07T06:38:33.690Z,8.440552
2022-11-07T06:41:58.935Z,8.561401
2022-11-07T06:45:24.223Z,8.581543
2022-11-07T06:48:49.426Z,8.652039
2022-11-07T06:52:14.688Z,8.682251
2022-11-07T06:55:39.947Z,8.652039
2022-11-07T06:59:05.216Z,8.662109
2022-11-07T07:02:56.616Z,8.662109
2022-11-07T07:05:55.699Z,8.662109
2022-11-07T07:09:20.937Z,8.662109
2022-11-07T07:12:46.181Z,8.712463
2022-11-07T07:16:11.471Z,8.762817
2022-11-07T07:19:36.834Z,8.772888
2022-11-07T07:23:05.657Z,8.772888
2022-11-07T07:26:27.232Z,8.79303
2022-11-07T07:29:52.482Z,8.742676
2022-11-07T07:33:18.233Z,8.813171
2022-11-07T07:36:43.152Z,8.863525
2022-11-07T07:40:08.304Z,8.843384
2022-11-07T07:43:33.619Z,8.833313
2022-11-07T07:46:58.836Z,8.843384
2022-11-07T07:50:24.099Z,8.913879
2022-11-07T07:53:49.482Z,8.944092
2022-11-07T07:57:14.603Z,9.014587
2022-11-07T08:00:39.952Z,9.095154
2022-11-07T08:04:05.146Z,9.145508
2022-11-07T08:07:30.380Z,9.125366
2022-11-07T08:10:55.776Z,9.205933
2022-11-07T08:14:20.919Z,9.165649
2022-11-07T08:17:46.183Z,9.165649
2022-11-07T08:21:11.460Z,9.205933
2022-11-07T08:24:36.685Z,9.306641
2022-11-07T08:28:02.034Z,9.387207
2022-11-07T08:31:27.222Z,9.377136
2022-11-07T08:34:52.469Z,9.42749
2022-11-07T08:38:17.682Z,9.467773
2022-11-07T08:41:42.898Z,9.497986
2022-11-07T08:45:08.180Z,9.538269
2022-11-07T08:48:33.414Z,9.578552
2022-11-07T08:51:58.693Z,9.67926
2022-11-07T08:55:23.939Z,9.709473
2022-11-07T08:58:49.196Z,9.779968
2022-11-07T09:02:47.836Z,9.790039
2022-11-07T09:05:39.721Z,9.840393
2022-11-07T09:09:05.000Z,9.810181
2022-11-07T09:12:30.216Z,9.870605
2022-11-07T09:15:55.455Z,9.961243
2022-11-07T09:19:20.722Z,9.991455
2022-11-07T09:22:45.977Z,10.021667
2022-11-07T09:26:11.216Z,10.152588
2022-11-07T09:29:36.490Z,10.233154
2022-11-07T09:33:01.776Z,10.273438
2022-11-07T09:36:27.107Z,10.364075
2022-11-07T09:39:52.324Z,10.323792
2022-11-07T09:43:17.921Z,10.293579
2022-11-07T09:46:42.848Z,10.273438
2022-11-07T09:50:08.099Z,10.1828
2022-11-07T09:53:33.431Z,10.122375
2022-11-07T09:56:58.657Z,10.172729
2022-11-07T10:00:23.905Z,10.1828
2022-11-07T10:04:17.939Z,10.202942
2022-11-07T10:07:14.432Z,10.233154
2022-11-07T10:10:39.729Z,10.202942
2022-11-07T10:14:04.958Z,10.273438
2022-11-07T10:17:30.274Z,10.404358
2022-11-07T10:21:10.476Z,10.595703
2022-11-07T10:24:20.796Z,10.666199
2022-11-07T10:27:46.139Z,10.666199
2022-11-07T10:31:11.360Z,10.67627
2022-11-07T10:34:36.649Z,10.817261
2022-11-07T10:38:01.932Z,10.847473
2022-11-07T10:41:27.207Z,10.847473
2022-11-07T10:44:52.494Z,10.877686
2022-11-07T10:48:18.174Z,10.857544
2022-11-07T10:51:43.052Z,10.907898
2022-11-07T10:55:08.323Z,10.907898
2022-11-07T10:58:33.582Z,10.93811
2022-11-07T11:01:58.892Z,10.917969
2022-11-07T11:05:24.081Z,10.917969
2022-11-07T11:08:49.552Z,10.958252
2022-11-07T11:12:14.924Z,10.958252
2022-11-07T11:15:40.170Z,10.968323
2022-11-07T11:19:05.485Z,10.93811
2022-11-07T11:22:31.129Z,10.93811
2022-11-07T11:25:56.342Z,10.907898
2022-11-07T11:29:21.582Z,10.917969
2022-11-07T11:32:46.870Z,10.958252
2022-11-07T11:36:12.326Z,11.028748
2022-11-07T11:39:37.367Z,10.998535
2022-11-07T11:43:02.643Z,10.958252
2022-11-07T11:46:27.874Z,10.988464
2022-11-07T11:49:53.148Z,10.998535
2022-11-07T11:53:18.689Z,11.018677
2022-11-07T11:56:43.691Z,11.099243
2022-11-07T12:00:08.972Z,11.069031
2022-11-07T12:03:34.203Z,11.069031
2022-11-07T12:06:59.445Z,11.069031
2022-11-07T12:10:24.754Z,11.099243
2022-11-07T12:13:50.001Z,11.17981
2022-11-07T12:17:15.307Z,11.290588
2022-11-07T12:20:40.566Z,11.391296
2022-11-07T12:24:05.835Z,11.43158
2022-11-07T12:27:31.144Z,11.401367
2022-11-07T12:30:56.395Z,11.401367
2022-11-07T12:34:21.637Z,11.361084
2022-11-07T12:37:46.919Z,11.351013
2022-11-07T12:41:12.240Z,11.421509
2022-11-07T12:44:37.511Z,11.44165
2022-11-07T12:48:02.748Z,11.361084
2022-11-07T12:51:28.029Z,11.320801
2022-11-07T12:54:53.264Z,11.320801
2022-11-07T12:58:18.543Z,11.290588
2022-11-07T13:01:43.964Z,11.220093
2022-11-07T13:05:09.053Z,11.17981
2022-11-07T13:08:35.159Z,11.099243
2022-11-07T13:11:59.533Z,11.089172
2022-11-07T13:15:24.808Z,11.038818
2022-11-07T13:18:50.124Z,11.169739
2022-11-07T13:22:15.393Z,11.149597
2022-11-07T13:25:40.711Z,11.169739
2022-11-07T13:29:05.895Z,11.17981
2022-11-07T13:32:31.190Z,11.18988
2022-11-07T13:35:56.486Z,11.250305
2022-11-07T13:39:21.693Z,11.240234
2022-11-07T13:42:46.921Z,11.280518
2022-11-07T13:46:12.157Z,11.320801
2022-11-07T13:49:41.456Z,11.320801
2022-11-07T13:53:02.637Z,11.401367
2022-11-07T13:56:27.985Z,11.391296
2022-11-07T13:59:53.375Z,11.461792
2022-11-07T14:03:18.780Z,11.471863
2022-11-07T14:06:43.929Z,11.492004
2022-11-07T14:10:09.295Z,11.471863
2022-11-07T14:13:38.309Z,11.401367
2022-11-07T14:17:00.569Z,11.391296
2022-11-07T14:20:25.247Z,11.320801
2022-11-07T14:23:50.486Z,11.250305
2022-11-07T14:27:15.916Z,11.240234
2022-11-07T15:04:13.011Z,10.907898
2022-11-07T15:07:38.343Z,10.847473
2022-11-07T15:11:03.674Z,10.877686
2022-11-07T15:14:29.010Z,10.817261
2022-11-07T15:17:54.291Z,10.837402
2022-11-07T15:21:19.612Z,10.80719
2022-11-07T15:24:44.963Z,10.817261
2022-11-07T15:28:10.236Z,10.817261
2022-11-07T15:31:35.538Z,10.776978
2022-11-07T15:35:17.271Z,10.696411
2022-11-07T15:38:26.168Z,10.625916
2022-11-07T15:41:51.792Z,10.635986
2022-11-07T15:45:17.074Z,10.666199
2022-11-07T15:48:42.376Z,10.595703
2022-11-07T15:52:07.651Z,10.55542
2022-11-07T15:55:32.953Z,10.545349
2022-11-07T15:58:58.300Z,10.55542
2022-11-07T16:02:23.781Z,10.625916
2022-11-07T16:05:48.976Z,10.726624
2022-11-07T16:09:14.324Z,10.726624
2022-11-07T16:12:39.751Z,10.726624
2022-11-07T16:16:05.025Z,10.666199
2022-11-07T16:19:30.402Z,10.67627
2022-11-07T16:22:55.682Z,10.656128
2022-11-07T16:26:20.953Z,10.635986
2022-11-07T16:29:46.297Z,10.605774
2022-11-07T16:33:11.565Z,10.706482
2022-11-07T16:36:36.920Z,10.696411
2022-11-07T16:40:02.185Z,10.696411
2022-11-07T16:43:27.468Z,10.656128
2022-11-07T16:46:52.791Z,10.696411
2022-11-07T16:50:18.056Z,10.706482
2022-11-07T16:53:43.332Z,10.726624
2022-11-07T16:57:08.616Z,10.726624
2022-11-07T17:00:33.905Z,10.817261
2022-11-07T17:03:59.212Z,10.776978
2022-11-07T17:07:24.458Z,10.776978
2022-11-07T17:10:49.740Z,10.726624
2022-11-07T17:14:15.020Z,10.67627
2022-11-07T17:17:40.322Z,10.656128
2022-11-07T17:21:05.703Z,10.666199
2022-11-07T17:24:30.888Z,10.635986
2022-11-07T17:27:56.151Z,10.635986
2022-11-07T17:31:21.431Z,10.625916
2022-11-07T17:34:54.919Z,10.595703
2022-11-07T17:38:12.006Z,10.525208
2022-11-07T17:41:37.982Z,10.545349
2022-11-07T17:45:03.313Z,10.55542
2022-11-07T17:48:28.575Z,10.505066
2022-11-07T17:51:53.899Z,10.484924
2022-11-07T17:55:19.241Z,10.484924
2022-11-07T17:58:44.456Z,10.505066
2022-11-07T18:02:10.024Z,10.474854
2022-11-07T18:05:35.223Z,10.474854
2022-11-07T18:09:00.824Z,10.484924
2022-11-07T18:12:25.772Z,10.454712
2022-11-07T18:15:50.972Z,10.444641
2022-11-07T18:19:16.196Z,10.404358
2022-11-07T18:22:41.407Z,10.333862
2022-11-07T18:26:06.643Z,10.343933
2022-11-07T18:29:31.929Z,10.4245
2022-11-07T18:32:57.141Z,10.384216
2022-11-07T18:36:22.463Z,10.404358
2022-11-07T18:39:47.689Z,10.333862
2022-11-07T18:43:12.976Z,10.343933
2022-11-07T18:46:38.229Z,10.384216
2022-11-07T18:50:03.535Z,10.404358
2022-11-07T18:53:28.744Z,10.404358
2022-11-07T18:56:53.965Z,10.4245
2022-11-07T19:00:19.185Z,10.384216
2022-11-07T19:03:44.435Z,10.404358
2022-11-07T19:07:09.690Z,10.384216
2022-11-07T19:10:35.010Z,10.404358
2022-11-07T19:14:00.196Z,10.384216
2022-11-07T19:17:25.438Z,10.384216
2022-11-07T19:20:50.696Z,10.4245
2022-11-07T19:24:16.149Z,10.515137
2022-11-07T19:27:41.417Z,10.515137
2022-11-07T19:31:06.742Z,10.55542
2022-11-07T19:34:31.969Z,10.525208
2022-11-07T19:37:57.243Z,10.585632
2022-11-07T19:41:22.467Z,10.585632
2022-11-07T19:44:50.549Z,10.605774
2022-11-07T19:48:12.969Z,10.605774
2022-11-07T19:51:38.184Z,10.525208
2022-11-07T19:55:03.449Z,10.474854
2022-11-07T19:58:28.654Z,10.444641
2022-11-07T20:02:10.970Z,10.454712
2022-11-07T20:05:19.141Z,10.474854
2022-11-07T20:08:44.486Z,10.454712
2022-11-07T20:12:09.777Z,10.444641
2022-11-07T20:15:35.045Z,10.444641
2022-11-07T20:19:00.274Z,10.4245
2022-11-07T20:22:25.535Z,10.414429
2022-11-07T20:25:50.764Z,10.333862
2022-11-07T20:29:16.053Z,10.343933
2022-11-07T20:32:41.241Z,10.343933
2022-11-07T20:36:06.484Z,10.333862
2022-11-07T20:39:31.723Z,10.293579
2022-11-07T20:42:57.042Z,10.233154
2022-11-07T20:46:22.311Z,10.233154
2022-11-07T20:49:47.563Z,10.30365
2022-11-07T20:53:12.846Z,10.30365
2022-11-07T20:56:38.133Z,10.343933
2022-11-07T21:00:03.365Z,10.404358
2022-11-07T21:03:28.617Z,10.404358
2022-11-07T21:06:53.815Z,10.384216
2022-11-07T21:10:19.062Z,10.414429
2022-11-07T21:13:48.210Z,10.4245
2022-11-07T21:17:09.500Z,10.364075
2022-11-07T21:20:34.741Z,10.273438
2022-11-07T21:23:59.933Z,10.233154
2022-11-07T21:27:25.145Z,10.1828
2022-11-07T21:30:50.410Z,10.112305
2022-11-07T21:34:15.631Z,10.072021
2022-11-07T21:37:40.858Z,10.041809
2022-11-07T21:41:06.065Z,10.011597
2022-11-07T21:44:31.296Z,10.021667
2022-11-07T21:47:56.504Z,10.082092
2022-11-07T21:51:21.743Z,9.991455
2022-11-07T21:54:46.984Z,10.021667
2022-11-07T21:58:12.192Z,9.991455
2022-11-07T22:01:37.583Z,9.910889
2022-11-07T22:05:02.655Z,9.890747
2022-11-07T22:08:27.894Z,9.890747
2022-11-07T22:11:53.135Z,9.779968
2022-11-07T22:15:18.337Z,9.749756
2022-11-07T22:18:43.616Z,9.739685
2022-11-07T22:22:08.844Z,9.709473
2022-11-07T22:25:34.068Z,9.659119
2022-11-07T22:28:59.313Z,9.689331
2022-11-07T22:32:24.506Z,9.659119
2022-11-07T22:35:49.730Z,9.709473
2022-11-07T22:39:14.952Z,9.739685
2022-11-07T22:42:40.180Z,9.739685
2022-11-07T22:46:05.432Z,9.719543
2022-11-07T22:49:30.626Z,9.739685
2022-11-07T22:52:55.857Z,9.739685
2022-11-07T22:56:21.071Z,9.719543
2022-11-07T22:59:46.302Z,9.689331
2022-11-07T23:03:11.671Z,9.709473
2022-11-07T23:06:36.720Z,9.739685
2022-11-07T23:10:01.953Z,9.779968
2022-11-07T23:13:27.190Z,9.759827
2022-11-07T23:16:52.400Z,9.719543
2022-11-07T23:20:17.671Z,9.649048
2022-11-07T23:23:42.859Z,9.638977
2022-11-07T23:27:08.093Z,9.638977
2022-11-07T23:30:33.339Z,9.638977
2022-11-07T23:33:58.569Z,9.659119
2022-11-07T23:37:23.823Z,9.719543
2022-11-07T23:40:49.007Z,9.709473
2022-11-07T23:44:14.245Z,9.709473
2022-11-07T23:47:39.481Z,9.608765
2022-11-07T23:51:04.701Z,9.558411
2022-11-07T23:54:29.966Z,9.538269
2022-11-07T23:57:55.169Z,9.417419
